createdAt,value
2019-04-01T00:01:21.337Z,99158.33
2019-04-01T00:03:53.858Z,99158.33
2019-04-01T00:06:26.490Z,99175.55
2019-04-01T00:08:58.294Z,99176.42
2019-04-01T00:11:30.661Z,99177.24
2019-04-01T00:14:04.694Z,99177.24
2019-04-01T00:16:38.285Z,99170.65
2019-04-01T00:19:11.893Z,99171.38
2019-04-01T00:21:44.730Z,99171.38
2019-04-01T00:24:17.312Z,99180.32
2019-04-01T00:26:49.425Z,99180.83
2019-04-01T00:29:21.761Z,99137.49
2019-04-01T00:31:54.383Z,99137.49
2019-04-01T00:34:26.749Z,99165.96
2019-04-01T00:36:59.313Z,99165.96
2019-04-01T00:39:31.664Z,99170.63
2019-04-01T00:42:08.898Z,99170.63
2019-04-01T00:44:41.302Z,99175.10
2019-04-01T00:47:13.705Z,99177.16
2019-04-01T00:49:46.306Z,99177.16
2019-04-01T00:52:19.862Z,99171.16
2019-04-01T00:54:52.405Z,99169.83
2019-04-01T00:57:24.802Z,99163.72
2019-04-01T00:59:57.366Z,99163.72
2019-04-01T01:02:29.065Z,99166.82
2019-04-01T01:05:01.479Z,99165.61
2019-04-01T01:07:34.290Z,99167.61
2019-04-01T01:10:10.398Z,99157.83
2019-04-01T01:12:42.801Z,99157.83
2019-04-01T01:15:16.576Z,99170.23
2019-04-01T01:17:49.045Z,99165.41
2019-04-01T01:20:21.406Z,99175.88
2019-04-01T01:22:53.842Z,99164.48
2019-04-01T01:25:26.320Z,99161.59
2019-04-01T01:28:01.403Z,99162.37
2019-04-01T01:30:34.689Z,99162.37
2019-04-01T01:33:07.298Z,99165.84
2019-04-01T01:35:39.779Z,99143.48
2019-04-01T01:38:12.475Z,99143.48
2019-04-01T01:40:44.319Z,99157.17
2019-04-01T01:43:16.698Z,99155.56
2019-04-01T01:45:49.315Z,99139.34
2019-04-01T01:48:21.745Z,99143.82
2019-04-01T01:50:54.303Z,99143.82
2019-04-01T01:53:26.773Z,99135.30
2019-04-01T01:55:59.297Z,99135.30
2019-04-01T01:58:31.629Z,99158.56
2019-04-01T02:01:06.877Z,99158.56
2019-04-01T02:03:39.364Z,99158.00
2019-04-01T02:06:14.542Z,99153.67
2019-04-01T02:08:47.297Z,99152.63
2019-04-01T02:11:19.736Z,99158.94
2019-04-01T02:13:52.290Z,99158.94
2019-04-01T02:16:24.642Z,99150.58
2019-04-01T02:18:57.179Z,99150.58
2019-04-01T02:21:29.611Z,99150.38
2019-04-01T02:24:02.308Z,99152.44
2019-04-01T02:26:34.731Z,99132.70
2019-04-01T02:29:09.749Z,99132.70
2019-04-01T02:31:42.309Z,99146.98
2019-04-01T02:34:14.600Z,99125.69
2019-04-01T02:36:47.339Z,99125.69
2019-04-01T02:39:19.725Z,99126.13
2019-04-01T02:41:52.292Z,99126.13
2019-04-01T02:44:24.645Z,99142.53
2019-04-01T02:46:58.287Z,99142.53
2019-04-01T02:49:30.645Z,99142.81
2019-04-01T02:52:03.033Z,99142.81
2019-04-01T02:54:35.571Z,99143.15
2019-04-01T02:57:07.854Z,99141.25
2019-04-01T02:59:40.361Z,99141.19
2019-04-01T03:02:13.101Z,99140.89
2019-04-01T03:04:45.514Z,99139.86
2019-04-01T03:07:18.073Z,99144.52
2019-04-01T03:09:50.517Z,99139.06
2019-04-01T03:12:23.034Z,99140.45
2019-04-01T03:14:55.458Z,99137.70
2019-04-01T03:17:27.129Z,99140.20
2019-04-01T03:19:59.512Z,99134.06
2019-04-01T03:22:31.229Z,99139.06
2019-04-01T03:25:03.635Z,99136.62
2019-04-01T03:27:36.306Z,99147.67
2019-04-01T03:30:09.291Z,99141.58
2019-04-01T03:32:45.170Z,99128.81
2019-04-01T03:35:16.550Z,99130.45
2019-04-01T03:37:48.970Z,99130.45
2019-04-01T03:40:21.368Z,99142.30
2019-04-01T03:42:53.744Z,99139.71
2019-04-01T03:45:26.285Z,99139.71
2019-04-01T03:47:58.624Z,99126.94
2019-04-01T03:50:31.297Z,99126.94
2019-04-01T03:53:04.299Z,99142.37
2019-04-01T03:55:37.006Z,99142.37
2019-04-01T03:58:09.300Z,99150.81
2019-04-01T04:00:41.705Z,99121.41
2019-04-01T04:03:14.287Z,99121.41
2019-04-01T04:05:46.665Z,99149.88
2019-04-01T04:08:19.286Z,99149.88
2019-04-01T04:10:51.674Z,99154.08
2019-04-01T04:13:24.046Z,99154.08
2019-04-01T04:15:56.323Z,99149.05
2019-04-01T04:18:28.264Z,99159.91
2019-04-01T04:21:00.527Z,99150.80
2019-04-01T04:23:33.286Z,99159.06
2019-04-01T04:26:05.819Z,99133.97
2019-04-01T04:28:38.762Z,99133.97
2019-04-01T04:31:12.337Z,99169.66
2019-04-01T04:33:44.834Z,99157.21
2019-04-01T04:36:17.434Z,99157.21
2019-04-01T04:38:49.984Z,99167.55
2019-04-01T04:43:32.369Z,99173.23
2019-04-01T04:46:05.035Z,99177.27
2019-04-01T04:48:37.438Z,99177.27
2019-04-01T04:51:09.819Z,99180.80
2019-04-01T04:56:25.607Z,99178.60
2019-04-01T04:58:59.334Z,99184.00
2019-04-01T05:01:31.706Z,99174.78
2019-04-01T05:04:04.277Z,99174.78
2019-04-01T05:06:36.550Z,99181.27
2019-04-01T05:09:09.287Z,99181.27
2019-04-01T05:11:41.665Z,99177.66
2019-04-01T05:14:14.278Z,99177.66
2019-04-01T05:16:46.998Z,99164.52
2019-04-01T05:19:19.397Z,99164.52
2019-04-01T05:21:53.576Z,99193.60
2019-04-01T05:24:28.308Z,99193.60
2019-04-01T05:27:02.807Z,99198.78
2019-04-01T05:29:36.879Z,99189.27
2019-04-01T05:32:13.294Z,99201.14
2019-04-01T05:34:47.357Z,99181.39
2019-04-01T05:37:19.262Z,99181.39
2019-04-01T05:39:52.435Z,99201.73
2019-04-01T05:42:26.659Z,99202.78
2019-04-01T05:45:00.701Z,99207.36
2019-04-01T05:47:34.790Z,99199.93
2019-04-01T05:50:09.259Z,99203.66
2019-04-01T05:52:47.053Z,99198.98
2019-04-01T05:55:19.651Z,99198.98
2019-04-01T05:57:52.273Z,99208.05
2019-04-01T06:00:26.604Z,99209.43
2019-04-01T06:02:59.483Z,99209.43
2019-04-01T06:05:32.305Z,99208.77
2019-04-01T06:08:05.052Z,99210.35
2019-04-01T06:10:37.738Z,99204.46
2019-04-01T06:13:11.067Z,99208.54
2019-04-01T06:15:43.804Z,99211.27
2019-04-01T06:18:16.385Z,99211.90
2019-04-01T06:20:48.600Z,99215.94
2019-04-01T06:23:21.291Z,99222.75
2019-04-01T06:25:54.309Z,99218.07
2019-04-01T06:28:27.303Z,99213.68
2019-04-01T06:31:00.435Z,99213.68
2019-04-01T06:33:32.777Z,99215.72
2019-04-01T06:36:05.291Z,99215.72
2019-04-01T06:38:37.702Z,99215.23
2019-04-01T06:41:10.285Z,99215.23
2019-04-01T06:43:42.645Z,99216.31
2019-04-01T06:46:15.282Z,99216.31
2019-04-01T06:48:47.965Z,99209.02
2019-04-01T06:51:20.718Z,99209.02
2019-04-01T06:53:55.890Z,99212.09
2019-04-01T06:56:38.646Z,99212.08
2019-04-01T06:59:12.018Z,99213.05
2019-04-01T07:01:44.802Z,99212.83
2019-04-01T07:04:17.383Z,99212.83
2019-04-01T07:06:49.827Z,99201.28
2019-04-01T07:09:22.646Z,99201.28
2019-04-01T07:11:56.661Z,99213.23
2019-04-01T07:14:29.288Z,99207.52
2019-04-01T07:17:01.901Z,99202.18
2019-04-01T07:19:37.523Z,99202.18
2019-04-01T07:22:10.129Z,99205.02
2019-04-01T07:24:42.765Z,99204.88
2019-04-01T07:27:15.282Z,99207.73
2019-04-01T07:29:47.902Z,99192.80
2019-04-01T07:32:20.953Z,99192.80
2019-04-01T07:34:53.301Z,99207.10
2019-04-01T07:37:25.860Z,99199.30
2019-04-01T07:39:58.370Z,99199.30
2019-04-01T07:42:31.316Z,99197.94
2019-04-01T07:45:04.494Z,99193.46
2019-04-01T07:47:37.547Z,99193.46
2019-04-01T07:50:12.422Z,99201.09
2019-04-01T07:52:45.709Z,99206.59
2019-04-01T07:55:18.384Z,99205.84
2019-04-01T07:57:51.009Z,99193.02
2019-04-01T08:00:27.050Z,99201.09
2019-04-01T08:02:59.727Z,99196.30
2019-04-01T08:05:32.473Z,99195.66
2019-04-01T08:08:05.339Z,99199.45
2019-04-01T08:10:38.374Z,99196.32
2019-04-01T08:13:14.729Z,99192.61
2019-04-01T08:15:47.429Z,99189.81
2019-04-01T08:18:19.244Z,99187.88
2019-04-01T08:20:51.629Z,99190.98
2019-04-01T08:23:24.294Z,99182.89
2019-04-01T08:25:56.842Z,99180.67
2019-04-01T08:28:29.753Z,99180.67
2019-04-01T08:31:04.291Z,99177.87
2019-04-01T08:33:36.829Z,99153.91
2019-04-01T08:36:09.406Z,99153.91
2019-04-01T08:38:42.300Z,99181.63
2019-04-01T08:41:17.293Z,99174.48
2019-04-01T08:43:51.234Z,99176.47
2019-04-01T08:46:23.791Z,99180.06
2019-04-01T08:48:56.718Z,99171.43
2019-04-01T08:51:29.321Z,99169.73
2019-04-01T08:54:02.997Z,99165.84
2019-04-01T08:56:43.805Z,99165.84
2019-04-01T08:59:16.468Z,99170.72
2019-04-01T09:01:49.467Z,99164.73
2019-04-01T09:04:21.252Z,99158.83
2019-04-01T09:06:53.890Z,99160.81
2019-04-01T09:09:27.971Z,99156.02
2019-04-01T09:12:01.429Z,99154.94
2019-04-01T09:14:33.660Z,99153.72
2019-04-01T09:17:06.632Z,99149.15
2019-04-01T09:19:46.689Z,99151.69
2019-04-01T09:22:19.326Z,99147.68
2019-04-01T09:24:51.866Z,99129.24
2019-04-01T09:27:24.426Z,99129.24
2019-04-01T09:29:57.325Z,99136.84
2019-04-01T09:32:29.912Z,99135.43
2019-04-01T09:35:04.562Z,99135.43
2019-04-01T09:37:37.086Z,99126.05
2019-04-01T09:40:10.680Z,99130.56
2019-04-01T09:42:43.294Z,99123.52
2019-04-01T09:45:16.347Z,99091.48
2019-04-01T09:47:48.246Z,99091.48
2019-04-01T09:50:21.304Z,99124.33
2019-04-01T09:52:56.373Z,99118.08
2019-04-01T09:55:31.394Z,99115.61
2019-04-01T09:58:03.901Z,99107.30
2019-04-01T10:00:36.823Z,99107.30
2019-04-01T10:03:10.238Z,99114.05
2019-04-01T10:05:43.344Z,99099.44
2019-04-01T10:08:15.794Z,99092.50
2019-04-01T10:10:48.648Z,99092.50
2019-04-01T10:13:21.358Z,99096.05
2019-04-01T10:15:56.829Z,99074.39
2019-04-01T10:18:30.305Z,99074.39
2019-04-01T10:21:02.947Z,99077.95
2019-04-01T10:23:35.388Z,99077.95
2019-04-01T10:26:08.061Z,99086.37
2019-04-01T10:28:44.000Z,99086.37
2019-04-01T10:31:16.642Z,99056.91
2019-04-01T10:33:49.354Z,99056.91
2019-04-01T10:36:21.265Z,99076.80
2019-04-01T10:38:53.821Z,99073.63
2019-04-01T10:41:26.464Z,99070.30
2019-04-01T10:43:59.047Z,99064.20
2019-04-01T10:46:34.328Z,99068.53
2019-04-01T10:49:06.799Z,99061.87
2019-04-01T10:51:39.344Z,99061.87
2019-04-01T10:54:12.066Z,99066.59
2019-04-01T10:56:44.582Z,99062.84
2019-04-01T10:59:17.178Z,99057.86
2019-04-01T11:01:50.044Z,99041.00
2019-04-01T11:04:22.582Z,99041.00
2019-04-01T11:06:55.312Z,99042.39
2019-04-01T11:09:38.273Z,99028.98
2019-04-01T11:12:02.349Z,99028.98
2019-04-01T11:14:34.239Z,99029.60
2019-04-01T11:17:06.836Z,99026.11
2019-04-01T11:19:39.875Z,99026.13
2019-04-01T11:22:12.569Z,99020.77
2019-04-01T11:24:45.020Z,99015.93
2019-04-01T11:27:19.426Z,99001.44
2019-04-01T11:29:51.078Z,98999.28
2019-04-01T11:32:23.435Z,99004.65
2019-04-01T11:34:56.191Z,99002.20
2019-04-01T11:37:28.664Z,98970.48
2019-04-01T11:40:03.382Z,98970.48
2019-04-01T11:42:35.568Z,98994.05
2019-04-01T11:45:11.780Z,98993.23
2019-04-01T11:47:44.442Z,98992.79
2019-04-01T11:50:16.383Z,98995.05
2019-04-01T11:52:48.763Z,98978.89
2019-04-01T11:55:21.505Z,98978.89
2019-04-01T11:57:54.021Z,98976.70
2019-04-01T12:00:28.069Z,98963.53
2019-04-01T12:03:00.708Z,98979.03
2019-04-01T12:05:33.309Z,98963.78
2019-04-01T12:08:05.783Z,98963.70
2019-04-01T12:10:39.298Z,98963.70
2019-04-01T12:13:11.812Z,98935.13
2019-04-01T12:15:44.501Z,98935.13
2019-04-01T12:18:17.282Z,98956.02
2019-04-01T12:20:50.909Z,98947.31
2019-04-01T12:23:23.326Z,98947.31
2019-04-01T12:25:55.775Z,98930.44
2019-04-01T12:28:36.417Z,98930.44
2019-04-01T12:31:07.577Z,98926.71
2019-04-01T12:33:42.311Z,98925.06
2019-04-01T12:36:14.914Z,98918.28
2019-04-01T12:38:49.281Z,98918.28
2019-04-01T12:41:21.899Z,98919.10
2019-04-01T12:43:54.568Z,98898.65
2019-04-01T12:46:27.416Z,98910.73
2019-04-01T12:48:59.252Z,98902.28
2019-04-01T12:51:31.608Z,98908.21
2019-04-01T12:54:08.311Z,98899.63
2019-04-01T12:56:42.441Z,98870.22
2019-04-01T12:59:16.703Z,98870.22
2019-04-01T13:01:49.619Z,98887.66
2019-04-01T13:04:24.500Z,98892.17
2019-04-01T13:06:58.325Z,98886.58
2019-04-01T13:09:32.594Z,98857.30
2019-04-01T13:12:14.133Z,98857.30
2019-04-01T13:14:55.426Z,98862.34
2019-04-01T14:01:44.587Z,98812.00
2019-04-01T15:40:00.378Z,98748.44
2019-04-01T15:42:32.301Z,98747.78
2019-04-01T15:45:07.690Z,98718.83
2019-04-01T15:47:40.333Z,98718.83
2019-04-01T15:50:27.351Z,98732.89
2019-04-01T15:52:46.676Z,98730.23
2019-04-01T15:55:19.467Z,98724.64
2019-04-01T15:57:51.987Z,98723.50
2019-04-01T16:00:24.774Z,98722.62
2019-04-01T16:02:57.748Z,98715.85
2019-04-01T16:05:30.627Z,98708.37
2019-04-01T16:08:03.309Z,98714.86
2019-04-01T16:10:36.057Z,98706.50
2019-04-01T16:13:08.842Z,98706.50
2019-04-01T16:15:41.419Z,98701.50
2019-04-01T16:18:13.219Z,98701.17
2019-04-01T16:20:47.494Z,98695.33
2019-04-01T16:23:20.275Z,98693.26
2019-04-01T16:25:52.689Z,98699.63
2019-04-01T16:28:25.301Z,98699.63
2019-04-01T16:30:58.339Z,98686.25
2019-04-01T16:33:30.296Z,98686.25
2019-04-01T16:36:02.821Z,98695.41
2019-04-01T16:38:35.407Z,98696.30
2019-04-01T16:41:07.486Z,98695.17
2019-04-01T16:43:39.246Z,98698.52
2019-04-01T16:46:13.405Z,98702.75
2019-04-01T16:48:46.595Z,98704.00
2019-04-01T16:51:19.293Z,98710.25
2019-04-01T16:53:51.815Z,98669.14
2019-04-01T16:56:25.912Z,98669.14
2019-04-01T16:58:59.941Z,98693.24
2019-04-01T19:18:30.648Z,98751.67
2019-04-01T19:21:09.811Z,98752.71
2019-04-01T19:23:47.825Z,98758.50
2019-04-01T19:26:26.675Z,98760.42
2019-04-01T19:29:02.313Z,98755.32
2019-04-01T19:31:38.671Z,98755.63
2019-04-01T19:34:14.701Z,98758.53
2019-04-01T19:36:46.771Z,98764.41
2019-04-01T19:39:23.847Z,98760.55
2019-04-01T19:41:57.730Z,98761.16
2019-04-01T19:48:07.517Z,98758.39
2019-04-01T19:50:41.292Z,98758.39
2019-04-01T19:53:13.864Z,98736.50
2019-04-01T19:55:46.424Z,98736.50
2019-04-01T19:58:20.343Z,98765.48
2019-04-01T20:00:52.231Z,98759.63
2019-04-01T20:03:25.613Z,98764.48
2019-04-01T20:05:58.757Z,98758.54
2019-04-01T20:08:31.326Z,98762.75
2019-04-01T20:11:04.316Z,98744.30
2019-04-01T20:13:36.842Z,98745.48
2019-04-01T20:16:10.260Z,98745.48
2019-04-01T20:18:45.254Z,98762.64
2019-04-01T20:21:18.013Z,98738.86
2019-04-01T20:23:51.044Z,98738.86
2019-04-01T20:26:23.535Z,98752.11
2019-04-01T20:28:56.310Z,98759.52
2019-04-01T20:31:28.799Z,98753.31
2019-04-01T20:34:04.167Z,98753.31
2019-04-01T20:36:35.573Z,98752.94
2019-04-01T20:39:11.071Z,98750.99
2019-04-01T20:41:43.467Z,98753.06
2019-04-01T20:44:15.486Z,98750.26
2019-04-01T20:46:47.240Z,98743.48
2019-04-01T20:49:19.590Z,98746.69
2019-04-01T20:51:54.035Z,98748.86
2019-04-01T20:54:26.761Z,98746.14
2019-04-01T20:56:59.398Z,98745.47
2019-04-01T20:59:31.259Z,98744.34
2019-04-01T21:02:04.251Z,98742.93
2019-04-01T21:04:36.849Z,98737.94
2019-04-01T21:07:09.997Z,98737.94
2019-04-01T21:09:42.622Z,98734.90
2019-04-01T21:12:16.298Z,98729.45
2019-04-01T21:14:48.864Z,98731.11
2019-04-01T21:17:21.327Z,98731.11
2019-04-01T21:19:53.738Z,98737.74
2019-04-01T21:22:26.162Z,98737.74
2019-04-01T21:24:58.701Z,98735.83
2019-04-01T21:27:31.312Z,98739.88
2019-04-01T21:30:03.983Z,98726.44
2019-04-01T21:32:36.749Z,98726.44
2019-04-01T21:35:09.686Z,98731.36
2019-04-01T21:37:42.312Z,98730.70
2019-04-01T21:40:15.570Z,98719.67
2019-04-01T21:42:47.985Z,98719.67
2019-04-01T21:45:20.657Z,98730.89
2019-04-01T21:47:53.291Z,98725.34
2019-04-01T21:50:25.728Z,98709.84
2019-04-01T21:52:59.668Z,98709.84
2019-04-01T21:55:32.050Z,98724.27
2019-04-01T21:58:04.482Z,98726.92
2019-04-01T22:00:37.634Z,98726.75
2019-04-01T22:03:10.648Z,98730.44
2019-04-01T22:05:43.465Z,98729.02
2019-04-01T22:08:16.301Z,98726.98
2019-04-01T22:10:50.315Z,98691.70
2019-04-01T22:13:27.225Z,98691.70
2019-04-01T22:15:59.679Z,98721.97
2019-04-01T22:18:33.022Z,98721.97
2019-04-01T22:21:05.473Z,98717.41
2019-04-01T22:23:37.059Z,98714.68
2019-04-01T22:26:09.405Z,98704.53
2019-04-01T22:28:44.405Z,98709.81
2019-04-01T22:31:16.756Z,98705.44
2019-04-01T22:33:49.302Z,98705.44
2019-04-01T22:36:30.478Z,98707.17
2019-04-01T22:38:55.372Z,98706.26
2019-04-01T22:41:29.146Z,98673.30
2019-04-01T22:44:02.051Z,98698.02
2019-04-01T22:46:36.354Z,98698.02
2019-04-01T22:49:08.867Z,98692.27
2019-04-01T22:51:41.320Z,98692.27
2019-04-01T22:54:13.627Z,98696.33
2019-04-01T22:56:46.308Z,98696.33
2019-04-01T22:59:19.286Z,98663.67
2019-04-01T23:01:52.673Z,98694.72
2019-04-01T23:04:25.310Z,98694.72
2019-04-01T23:06:57.590Z,98684.88
2019-04-01T23:09:30.048Z,98684.88
2019-04-01T23:12:02.486Z,98686.19
2019-04-01T23:14:34.427Z,98684.58
2019-04-01T23:17:06.887Z,98671.37
2019-04-01T23:19:39.412Z,98671.37
2019-04-01T23:22:11.820Z,98665.61
2019-04-01T23:24:44.347Z,98665.61
2019-04-01T23:27:16.971Z,98668.97
2019-04-01T23:29:51.087Z,98668.97
2019-04-01T23:32:24.155Z,98671.28
2019-04-01T23:34:56.772Z,98670.17
2019-04-01T23:37:29.313Z,98679.18
2019-04-01T23:40:02.395Z,98656.92
2019-04-01T23:42:37.683Z,98668.70
2019-04-01T23:45:11.788Z,98668.70
2019-04-01T23:47:45.254Z,98665.04
2019-04-01T23:50:18.292Z,98663.02
2019-04-01T23:52:50.771Z,98661.30
2019-04-01T23:55:23.308Z,98661.30
2019-04-01T23:57:55.784Z,98662.09
